createdAt,value
2022-09-04T00:01:15.100Z,13.70
2022-09-04T00:03:51.540Z,13.70
2022-09-04T00:06:24.929Z,13.70
2022-09-04T00:09:04.480Z,13.70
2022-09-04T00:11:47.637Z,13.70
2022-09-04T00:14:21.469Z,13.70
2022-09-04T00:17:00.926Z,13.70
2022-09-04T00:19:35.476Z,13.70
2022-09-04T00:22:24.983Z,13.60
2022-09-04T00:25:03.748Z,13.60
2022-09-04T00:27:43.465Z,13.60
2022-09-04T00:30:19.810Z,13.60
2022-09-04T00:32:55.823Z,13.50
2022-09-04T00:35:30.750Z,13.50
2022-09-04T00:38:04.984Z,13.40
2022-09-04T00:40:35.789Z,13.40
2022-09-04T00:43:25.858Z,13.40
2022-09-04T00:46:14.078Z,13.30
2022-09-04T00:49:06.720Z,13.40
2022-09-04T00:51:43.756Z,13.40
2022-09-04T00:54:26.546Z,13.30
2022-09-04T00:57:45.160Z,13.30
2022-09-04T01:00:16.420Z,13.30
2022-09-04T01:03:04.412Z,13.20
2022-09-04T01:05:45.948Z,13.20
2022-09-04T01:08:26.151Z,13.20
2022-09-04T01:11:08.285Z,13.20
2022-09-04T01:13:42.320Z,13.20
2022-09-04T01:16:16.814Z,13.10
2022-09-04T01:18:56.373Z,13.10
2022-09-04T01:21:51.319Z,13.10
2022-09-04T01:24:33.965Z,13.10
2022-09-04T01:27:09.610Z,13.10
2022-09-04T01:29:50.327Z,13.00
2022-09-04T01:32:33.872Z,13.00
2022-09-04T01:35:08.968Z,12.90
2022-09-04T01:38:03.646Z,12.90
2022-09-04T01:40:40.216Z,12.90
2022-09-04T01:43:12.872Z,12.80
2022-09-04T01:46:01.005Z,12.80
2022-09-04T01:48:39.400Z,12.80
2022-09-04T01:51:19.897Z,12.80
2022-09-04T01:53:57.725Z,12.80
2022-09-04T01:56:34.438Z,12.80
2022-09-04T01:59:09.841Z,12.70
2022-09-04T02:01:45.785Z,12.70
2022-09-04T02:04:21.781Z,12.70
2022-09-04T02:07:01.949Z,12.70
2022-09-04T02:09:37.289Z,12.70
2022-09-04T02:12:19.131Z,12.70
2022-09-04T02:14:59.504Z,12.60
2022-09-04T02:17:37.253Z,12.60
2022-09-04T02:20:17.616Z,12.60
2022-09-04T02:22:53.180Z,12.60
2022-09-04T02:25:28.938Z,12.60
2022-09-04T02:28:10.571Z,12.60
2022-09-04T02:30:54.351Z,12.50
2022-09-04T02:33:32.181Z,12.50
2022-09-04T02:36:07.051Z,12.50
2022-09-04T02:38:45.688Z,12.50
2022-09-04T02:41:24.098Z,12.50
2022-09-04T02:44:03.329Z,12.40
2022-09-04T02:46:43.283Z,12.40
2022-09-04T02:49:20.609Z,12.50
2022-09-04T02:52:02.020Z,12.50
2022-09-04T02:54:49.669Z,12.40
2022-09-04T02:57:30.202Z,12.40
2022-09-04T03:00:07.408Z,12.40
2022-09-04T03:02:42.703Z,12.40
2022-09-04T03:05:20.288Z,12.40
2022-09-04T03:07:59.246Z,12.40
2022-09-04T03:10:32.885Z,12.40
2022-09-04T03:13:08.227Z,12.40
2022-09-04T03:15:41.804Z,12.40
2022-09-04T03:18:20.904Z,12.40
2022-09-04T03:20:55.589Z,12.40
2022-09-04T03:23:33.945Z,12.40
2022-09-04T03:26:20.641Z,12.30
2022-09-04T03:29:10.649Z,12.30
2022-09-04T03:31:48.542Z,12.30
2022-09-04T03:34:29.067Z,12.30
2022-09-04T03:37:14.364Z,12.30
2022-09-04T03:39:55.239Z,12.40
2022-09-04T03:42:35.234Z,12.40
2022-09-04T03:45:18.642Z,12.40
2022-09-04T03:47:56.376Z,12.40
2022-09-04T03:50:36.478Z,12.30
2022-09-04T03:53:16.267Z,12.30
2022-09-04T03:56:21.713Z,12.30
2022-09-04T03:59:00.305Z,12.30
2022-09-04T04:01:38.111Z,12.30
2022-09-04T04:04:44.093Z,12.30
2022-09-04T04:07:35.501Z,12.30
2022-09-04T04:10:16.669Z,12.30
2022-09-04T04:13:12.359Z,12.30
2022-09-04T04:15:55.857Z,12.20
2022-09-04T04:18:42.967Z,12.20
2022-09-04T04:21:18.734Z,12.30
2022-09-04T04:24:02.139Z,12.30
2022-09-04T04:26:40.794Z,12.20
2022-09-04T04:29:26.806Z,12.20
2022-09-04T04:32:14.591Z,12.20
2022-09-04T04:34:58.998Z,12.10
2022-09-04T04:37:37.337Z,12.10
2022-09-04T04:40:16.461Z,12.10
2022-09-04T04:42:53.375Z,12.10
2022-09-04T04:45:47.113Z,12.10
2022-09-04T04:48:51.730Z,12.10
2022-09-04T04:51:40.525Z,12.10
2022-09-04T04:54:27.417Z,12.10
2022-09-04T04:57:02.125Z,12.10
2022-09-04T04:59:40.401Z,12.10
2022-09-04T05:02:19.160Z,12.00
2022-09-04T05:04:58.078Z,12.00
2022-09-04T05:07:34.665Z,12.00
2022-09-04T05:10:11.899Z,12.00
2022-09-04T05:12:57.113Z,12.10
2022-09-04T05:15:34.420Z,12.10
2022-09-04T05:18:12.134Z,12.10
2022-09-04T05:20:45.325Z,12.00
2022-09-04T05:23:28.530Z,12.00
2022-09-04T05:26:09.113Z,12.10
2022-09-04T05:28:50.005Z,12.00
2022-09-04T05:31:27.930Z,12.10
2022-09-04T05:34:03.441Z,12.10
2022-09-04T05:36:43.964Z,12.20
2022-09-04T05:39:19.644Z,12.30
2022-09-04T05:42:06.558Z,12.30
2022-09-04T05:44:55.214Z,12.30
2022-09-04T05:47:34.865Z,12.30
2022-09-04T05:50:27.835Z,12.40
2022-09-04T05:53:28.990Z,12.40
2022-09-04T05:56:13.961Z,12.50
2022-09-04T05:58:58.884Z,12.50
2022-09-04T06:01:52.500Z,12.60
2022-09-04T06:04:41.905Z,12.60
2022-09-04T06:07:18.843Z,12.70
2022-09-04T06:09:59.682Z,12.80
2022-09-04T06:12:42.802Z,12.90
2022-09-04T06:15:28.441Z,13.00
2022-09-04T06:18:12.768Z,13.10
2022-09-04T06:20:55.011Z,13.30
2022-09-04T06:23:56.750Z,13.40
2022-09-04T06:26:41.398Z,13.40
2022-09-04T06:29:49.638Z,13.50
2022-09-04T06:32:54.150Z,13.60
2022-09-04T06:35:34.769Z,13.70
2022-09-04T06:38:20.268Z,13.90
2022-09-04T06:41:03.987Z,14.10
2022-09-04T06:43:42.712Z,14.20
2022-09-04T06:46:22.722Z,14.30
2022-09-04T06:49:02.680Z,14.40
2022-09-04T06:51:45.581Z,14.50
2022-09-04T06:54:21.066Z,14.60
2022-09-04T06:57:08.903Z,14.70
2022-09-04T07:00:03.744Z,14.70
2022-09-04T07:02:50.193Z,14.80
2022-09-04T07:05:25.898Z,15.00
2022-09-04T07:08:04.979Z,15.20
2022-09-04T07:10:36.059Z,15.30
2022-09-04T07:13:24.908Z,15.60
2022-09-04T07:16:32.303Z,15.80
2022-09-04T07:19:38.547Z,15.80
2022-09-04T07:22:29.849Z,15.80
2022-09-04T07:25:12.350Z,15.80
2022-09-04T07:27:55.855Z,15.90
2022-09-04T07:30:26.106Z,15.90
2022-09-04T07:32:58.648Z,15.90
2022-09-04T07:35:36.326Z,16.00
2022-09-04T07:38:13.220Z,16.10
2022-09-04T07:40:45.929Z,16.20
2022-09-04T07:43:21.432Z,16.20
2022-09-04T07:46:00.432Z,16.30
2022-09-04T07:48:33.808Z,16.30
2022-09-04T07:51:10.496Z,16.40
2022-09-04T07:53:54.898Z,16.50
2022-09-04T07:56:35.991Z,16.70
2022-09-04T07:59:24.254Z,16.80
2022-09-04T08:02:19.034Z,16.80
2022-09-04T08:05:09.050Z,16.80
2022-09-04T08:08:16.645Z,16.90
2022-09-04T08:11:00.782Z,16.90
2022-09-04T08:13:43.128Z,17.10
2022-09-04T08:16:19.248Z,17.20
2022-09-04T08:19:12.038Z,17.40
2022-09-04T08:21:47.792Z,17.60
2022-09-04T08:24:41.271Z,17.80
2022-09-04T08:27:23.198Z,17.90
2022-09-04T08:30:08.597Z,18.00
2022-09-04T08:33:11.948Z,18.20
2022-09-04T08:35:51.019Z,18.50
2022-09-04T08:38:39.698Z,18.70
2022-09-04T08:41:55.049Z,18.90
2022-09-04T08:44:50.018Z,19.20
2022-09-04T08:47:54.776Z,19.70
2022-09-04T08:50:40.672Z,19.80
2022-09-04T08:53:42.060Z,19.90
2022-09-04T08:56:22.141Z,20.10
2022-09-04T08:59:28.321Z,20.20
2022-09-04T09:02:39.350Z,20.20
2022-09-04T09:05:55.726Z,20.50
2022-09-04T09:09:21.461Z,20.40
2022-09-04T09:12:21.610Z,20.70
2022-09-04T09:15:28.081Z,21.10
2022-09-04T09:18:04.227Z,21.30
2022-09-04T09:20:45.924Z,21.50
2022-09-04T09:23:39.006Z,21.50
2022-09-04T09:26:26.550Z,21.50
2022-09-04T09:29:25.143Z,21.70
2022-09-04T09:32:35.570Z,22.10
2022-09-04T09:35:34.514Z,22.30
2022-09-04T09:38:39.021Z,22.50
2022-09-04T09:41:28.501Z,22.50
2022-09-04T09:44:31.502Z,23.00
2022-09-04T09:47:32.342Z,22.90
2022-09-04T09:50:45.438Z,23.00
2022-09-04T09:54:01.257Z,23.30
2022-09-04T09:57:13.111Z,23.30
2022-09-04T10:00:09.502Z,23.40
2022-09-04T10:03:07.815Z,23.40
2022-09-04T10:06:09.702Z,23.80
2022-09-04T10:09:09.150Z,23.90
2022-09-04T10:12:19.968Z,23.80
2022-09-04T10:15:07.323Z,23.70
2022-09-04T10:18:15.534Z,23.60
2022-09-04T10:21:20.819Z,23.50
2022-09-04T10:24:22.696Z,23.50
2022-09-04T10:27:26.821Z,23.50
2022-09-04T10:30:06.045Z,23.50
2022-09-04T10:33:14.455Z,23.50
2022-09-04T10:36:04.327Z,23.70
2022-09-04T10:39:08.192Z,24.00
2022-09-04T10:42:06.254Z,24.40
2022-09-04T10:45:02.549Z,24.80
2022-09-04T10:47:58.758Z,25.30
2022-09-04T10:50:37.357Z,25.40
2022-09-04T10:53:35.482Z,25.40
2022-09-04T10:56:16.244Z,25.40
2022-09-04T10:59:16.246Z,25.70
2022-09-04T11:02:14.037Z,25.90
2022-09-04T11:05:08.289Z,26.00
2022-09-04T11:08:04.009Z,25.90
2022-09-04T11:10:53.101Z,26.00
2022-09-04T11:13:57.745Z,26.30
2022-09-04T11:16:50.727Z,26.90
2022-09-04T11:19:57.741Z,27.00
2022-09-04T11:22:58.527Z,27.10
2022-09-04T11:26:15.273Z,27.10
2022-09-04T11:29:04.355Z,27.10
2022-09-04T11:31:51.146Z,27.20
2022-09-04T11:35:07.136Z,27.50
2022-09-04T11:38:14.650Z,27.60
2022-09-04T11:41:31.333Z,27.70
2022-09-04T11:44:35.885Z,27.80
2022-09-04T11:47:48.636Z,27.80
2022-09-04T11:50:31.517Z,27.80
2022-09-04T11:53:32.603Z,27.40
2022-09-04T11:56:21.605Z,26.90
2022-09-04T11:59:17.064Z,26.60
2022-09-04T12:02:22.199Z,26.20
2022-09-04T12:05:09.607Z,26.00
2022-09-04T12:08:06.102Z,26.10
2022-09-04T12:11:04.368Z,26.30
2022-09-04T12:13:59.373Z,26.70
2022-09-04T12:16:50.962Z,26.80
2022-09-04T12:19:45.701Z,27.00
2022-09-04T12:22:58.003Z,27.40
2022-09-04T12:26:11.532Z,27.50
2022-09-04T12:29:12.705Z,27.60
2022-09-04T12:32:07.099Z,27.80
2022-09-04T12:34:54.454Z,27.80
2022-09-04T12:38:07.415Z,27.90
2022-09-04T12:40:45.335Z,28.20
2022-09-04T12:43:22.220Z,28.30
2022-09-04T12:46:05.861Z,28.40
2022-09-04T12:48:42.664Z,28.60
2022-09-04T12:51:14.431Z,28.70
2022-09-04T12:54:23.676Z,28.90
2022-09-04T12:57:08.171Z,29.00
2022-09-04T12:59:46.513Z,29.30
2022-09-04T13:02:28.784Z,29.30
2022-09-04T13:05:06.285Z,29.20
2022-09-04T13:07:52.237Z,29.10
2022-09-04T13:10:32.925Z,29.00
2022-09-04T13:13:15.722Z,28.70
2022-09-04T13:15:58.185Z,28.40
2022-09-04T13:18:46.690Z,28.70
2022-09-04T13:21:26.860Z,29.00
2022-09-04T13:24:12.807Z,29.10
2022-09-04T13:26:55.640Z,29.10
2022-09-04T13:29:40.251Z,29.20
2022-09-04T13:32:28.938Z,29.00
2022-09-04T13:35:15.944Z,28.80
2022-09-04T13:38:07.887Z,28.80
2022-09-04T13:41:00.155Z,28.90
2022-09-04T13:44:01.585Z,29.00
2022-09-04T13:46:34.545Z,29.00
2022-09-04T13:49:08.651Z,28.90
2022-09-04T13:51:44.774Z,29.10
2022-09-04T13:54:17.964Z,29.20
2022-09-04T13:56:53.889Z,29.20
2022-09-04T13:59:24.531Z,29.20
2022-09-04T14:01:58.330Z,29.10
2022-09-04T14:04:33.507Z,29.10
2022-09-04T14:07:11.717Z,29.00
2022-09-04T14:09:45.243Z,28.70
2022-09-04T14:12:38.625Z,28.70
2022-09-04T14:15:28.663Z,28.70
2022-09-04T14:18:16.500Z,28.60
2022-09-04T14:20:58.063Z,28.70
2022-09-04T14:23:42.345Z,28.60
2022-09-04T14:26:21.516Z,28.60
2022-09-04T14:28:57.330Z,28.60
2022-09-04T14:31:35.232Z,28.40
2022-09-04T14:34:16.060Z,28.50
2022-09-04T14:36:55.198Z,28.60
2022-09-04T14:39:29.116Z,28.50
2022-09-04T14:42:29.349Z,28.50
2022-09-04T14:45:23.369Z,28.40
2022-09-04T14:47:55.852Z,28.10
2022-09-04T14:50:30.380Z,28.00
2022-09-04T14:53:03.624Z,27.90
2022-09-04T14:55:35.470Z,27.80
2022-09-04T14:58:10.471Z,27.70
2022-09-04T15:01:00.294Z,27.50
2022-09-04T15:03:35.153Z,27.20
2022-09-04T15:06:16.198Z,27.00
2022-09-04T15:08:46.430Z,26.70
2022-09-04T15:11:31.599Z,26.60
2022-09-04T15:14:06.066Z,26.40
2022-09-04T15:16:50.625Z,26.20
2022-09-04T15:19:33.210Z,26.10
2022-09-04T15:22:07.622Z,26.00
2022-09-04T15:24:39.573Z,25.80
2022-09-04T15:27:19.898Z,25.70
2022-09-04T15:30:02.258Z,25.60
2022-09-04T15:32:36.670Z,25.50
2022-09-04T15:35:15.553Z,25.40
2022-09-04T15:37:48.358Z,25.50
2022-09-04T15:40:29.104Z,25.40
2022-09-04T15:43:12.330Z,25.40
2022-09-04T15:45:47.969Z,25.30
2022-09-04T15:48:24.158Z,25.20
2022-09-04T15:51:03.822Z,25.20
2022-09-04T15:53:35.878Z,25.10
2022-09-04T15:56:09.588Z,25.00
2022-09-04T15:58:55.382Z,25.00
2022-09-04T16:01:28.058Z,25.00
2022-09-04T16:04:07.258Z,24.90
2022-09-04T16:06:44.966Z,24.90
2022-09-04T16:09:23.989Z,24.90
2022-09-04T16:12:01.568Z,25.00
2022-09-04T16:14:38.426Z,25.00
2022-09-04T16:17:20.155Z,25.00
2022-09-04T16:19:57.727Z,25.00
2022-09-04T16:22:36.372Z,24.90
2022-09-04T16:25:10.195Z,24.90
2022-09-04T16:27:48.146Z,24.90
2022-09-04T16:30:33.010Z,24.90
2022-09-04T16:33:03.029Z,25.00
2022-09-04T16:35:36.267Z,24.80
2022-09-04T16:38:10.336Z,24.80
2022-09-04T16:40:43.986Z,24.60
2022-09-04T16:43:21.892Z,24.60
2022-09-04T16:46:06.397Z,24.60
2022-09-04T16:48:43.909Z,24.60
2022-09-04T16:51:39.449Z,24.50
2022-09-04T16:54:18.047Z,24.50
2022-09-04T16:56:50.800Z,24.50
2022-09-04T16:59:27.782Z,24.40
2022-09-04T17:02:02.475Z,24.40
2022-09-04T17:04:44.787Z,24.30
2022-09-04T17:07:19.114Z,24.30
2022-09-04T17:09:56.890Z,24.20
2022-09-04T17:12:38.685Z,24.20
2022-09-04T17:15:17.473Z,24.20
2022-09-04T17:17:47.795Z,24.10
2022-09-04T17:20:40.160Z,24.10
2022-09-04T17:29:03.037Z,24.00
2022-09-04T17:29:11.307Z,24.00
2022-09-04T17:29:34.507Z,23.90
2022-09-04T17:32:11.830Z,23.80
2022-09-04T17:40:48.267Z,23.80
2022-09-04T17:40:48.978Z,23.70
2022-09-04T17:41:37.963Z,23.60
2022-09-04T17:44:19.672Z,23.50
2022-09-04T17:47:03.813Z,23.40
2022-09-04T17:49:35.142Z,23.30
2022-09-04T17:52:09.087Z,23.20
2022-09-04T17:54:42.125Z,23.10
2022-09-04T17:57:26.045Z,23.00
2022-09-04T18:00:01.451Z,22.90
2022-09-04T18:02:39.758Z,22.80
2022-09-04T18:05:19.398Z,22.70
2022-09-04T18:08:09.945Z,22.60
2022-09-04T18:10:53.484Z,22.50
2022-09-04T18:13:38.099Z,22.40
2022-09-04T18:16:40.603Z,22.30
2022-09-04T18:19:20.267Z,22.20
2022-09-04T18:22:15.728Z,22.00
2022-09-04T18:24:50.751Z,21.90
2022-09-04T18:27:23.081Z,21.80
2022-09-04T18:34:29.616Z,21.80
2022-09-04T18:37:12.024Z,21.70
2022-09-04T18:37:25.658Z,21.60
2022-09-04T18:39:09.158Z,21.50
2022-09-04T18:49:15.989Z,21.50
2022-09-04T18:50:31.930Z,21.40
2022-09-04T18:50:33.640Z,21.30
2022-09-04T18:53:45.190Z,21.20
2022-09-04T18:56:20.892Z,21.10
2022-09-04T18:59:05.375Z,21.10
2022-09-04T19:01:43.943Z,21.10
2022-09-04T19:04:44.630Z,21.00
2022-09-04T19:07:23.134Z,20.90
2022-09-04T19:10:04.408Z,20.90
2022-09-04T19:12:47.077Z,20.80
2022-09-04T19:15:45.559Z,20.70
2022-09-04T19:18:27.471Z,20.60
2022-09-04T19:21:14.672Z,20.50
2022-09-04T19:23:50.278Z,20.40
2022-09-04T19:26:27.753Z,20.30
2022-09-04T19:29:00.692Z,20.30
2022-09-04T19:31:37.368Z,20.30
2022-09-04T19:34:15.197Z,20.20
2022-09-04T19:36:50.393Z,20.10
2022-09-04T19:45:55.852Z,20.00
2022-09-04T19:46:06.471Z,19.90
2022-09-04T19:46:17.658Z,19.80
2022-09-04T19:48:32.087Z,19.80
2022-09-04T19:53:34.524Z,19.70
2022-09-04T19:54:10.145Z,19.70
2022-09-04T19:57:33.013Z,19.60
2022-09-04T19:59:43.400Z,19.60
2022-09-04T20:02:23.288Z,19.50
2022-09-04T20:04:58.964Z,19.40
2022-09-04T20:07:41.112Z,19.40
2022-09-04T20:10:20.005Z,19.30
2022-09-04T20:12:53.837Z,19.30
2022-09-04T20:15:31.877Z,19.20
2022-09-04T20:18:10.008Z,19.20
2022-09-04T20:20:49.796Z,19.20
2022-09-04T20:23:43.845Z,19.20
2022-09-04T20:26:20.279Z,19.20
2022-09-04T20:28:59.559Z,19.10
2022-09-04T20:31:40.078Z,19.10
2022-09-04T20:34:27.910Z,19.10
2022-09-04T20:37:15.888Z,19.00
2022-09-04T20:39:53.132Z,19.00
2022-09-04T20:42:28.457Z,18.90
2022-09-04T20:46:26.391Z,18.90
2022-09-04T20:52:42.762Z,18.80
2022-09-04T20:52:48.680Z,18.80
2022-09-04T20:53:55.468Z,18.70
2022-09-04T20:58:02.736Z,18.60
2022-09-04T21:03:08.299Z,18.60
2022-09-04T21:03:13.968Z,18.60
2022-09-04T21:05:41.461Z,18.50
2022-09-04T21:08:19.668Z,18.40
2022-09-04T21:10:56.608Z,18.40
2022-09-04T21:13:31.088Z,18.40
2022-09-04T21:16:12.832Z,18.30
2022-09-04T21:19:27.969Z,18.30
2022-09-04T21:22:15.412Z,18.30
2022-09-04T21:25:09.767Z,18.20
2022-09-04T21:28:02.009Z,18.10
2022-09-04T21:30:50.401Z,18.10
2022-09-04T21:33:36.765Z,18.00
2022-09-04T21:36:26.896Z,18.00
2022-09-04T21:39:26.644Z,18.00
2022-09-04T21:42:11.432Z,17.90
2022-09-04T21:45:18.174Z,17.80
2022-09-04T21:48:23.254Z,17.80
2022-09-04T21:51:21.299Z,17.80
2022-09-04T21:54:37.552Z,17.80
2022-09-04T22:02:28.499Z,17.80
2022-09-04T22:02:37.303Z,17.70
2022-09-04T22:03:29.648Z,17.70
2022-09-04T22:06:10.428Z,17.70
2022-09-04T22:13:33.829Z,17.70
2022-09-04T22:13:38.743Z,17.60
2022-09-04T22:14:51.689Z,17.70
2022-09-04T22:17:42.520Z,17.60
2022-09-04T22:20:25.068Z,17.60
2022-09-04T22:23:31.358Z,17.60
2022-09-04T22:26:23.783Z,17.60
2022-09-04T22:29:12.531Z,17.50
2022-09-04T22:32:21.961Z,17.50
2022-09-04T22:35:36.061Z,17.40
2022-09-04T22:38:28.698Z,17.40
2022-09-04T22:41:21.492Z,17.30
2022-09-04T22:44:00.714Z,17.20
2022-09-04T22:46:56.466Z,17.20
2022-09-04T22:49:43.308Z,17.20
2022-09-04T22:52:29.715Z,17.10
2022-09-04T22:55:36.284Z,17.10
2022-09-04T22:58:19.153Z,17.00
2022-09-04T23:01:04.628Z,17.00
2022-09-04T23:03:45.544Z,17.00
2022-09-04T23:10:13.845Z,17.00
2022-09-04T23:13:47.051Z,17.00
2022-09-04T23:14:00.809Z,16.90
2022-09-04T23:15:56.058Z,16.90
2022-09-04T23:22:29.436Z,16.90
2022-09-04T23:26:34.641Z,16.80
2022-09-04T23:26:54.235Z,16.80
2022-09-04T23:28:28.686Z,16.80
2022-09-04T23:31:29.243Z,16.80
2022-09-04T23:34:27.403Z,16.70
2022-09-04T23:37:15.242Z,16.70
2022-09-04T23:40:11.317Z,16.70
2022-09-04T23:43:07.441Z,16.70
2022-09-04T23:46:01.741Z,16.70
2022-09-04T23:49:06.974Z,16.60
2022-09-04T23:51:45.637Z,16.50
2022-09-04T23:54:52.346Z,16.50
2022-09-04T23:57:29.517Z,16.40
